Albi, France

5:58 AM CEST on August 22, 2014 (GMT +0200)
station albi | Change Station
CLOSE
Current Station
Personal Weather Station
Location: Albi, MIDI-PYRéNéES
Elevation: 594 ft
Nearby Weather Stations

Elev 594 ft 43.93 °N, 2.15 °E | Updated 5 seconds ago

Clear
Clear
51.8 °F
Feels Like 51.8 °F
N
2.0
Wind Variable Wind from NE
Gusts 2.7 mph

Today
High -- | Low -- °F
--% Chance of Precip.
Yesterday
High -- | Low -- °F
Precip. -- in
7:03 AM 8:44 PM
Waning Crescent, 10% visible
Pressure 30.04 in
Visibility 6.2 miles
Clouds
Dew Point 50 °F
Humidity 91%
Rainfall 0.00 in
Snow Depth Not available.
UV Not available.
Pollen Not available.
Air Quality Not available.
Flu Activity Not available.
METAR LFCK 220330Z AUTO 08004KT 9999 NSC 12/11 Q1017

More Conditions Fewer Conditions

Pressure 30.04 in
Visibility 6.2 miles
Clouds
Dew Point 50 °F
Humidity 91%
Rainfall 0.00 in
Snow Depth Not available.
UV Not available.
Pollen Not available.
Air Quality Not available.
Flu Activity Not available.
METAR LFCK 220330Z AUTO 08004KT 9999 NSC 12/11 Q1017

More Conditions Fewer Conditions

10-Day Weather Forecast

Almanac

Astronomy

Aug. 22, 2014 Rise Set
Actual Time 7:03 AM CEST 8:44 PM CEST
Civil Twilight 6:32 AM CEST 9:15 PM CEST
Nautical Twilight 5:55 AM CEST 9:52 PM CEST
Astronomical Twilight 5:15 AM CEST 10:32 PM CEST
Moon 4:09 AM CEST 6:45 PM CEST
Length of Visible Light 14h 42m
Length of Day
13h 41m
Tomorrow will be 2m 48s shorter.
Waning Crescent, 10% of the Moon is Illuminated
Aug 21
Waning Crescent
Aug 25
New
Sep 2
First Quarter
Sep 8
Full
Sep 15
Last Quarter

Yesterday's Extremes

Country Highs Country Lows

Community

WunderPhotos

Upload Photos

1,746,127 photos uploaded!

Nearby

Snow Depth

Not available.

Earthquake Activity

City Distance Mag. Time & Date
No recent earthquake activity has been reported nearby.
Minimum magnitude displayed is 2.5.

Coastal Water Temperatures

Place Temperature
No Stations Reporting

Nearby Weather Stations